Hovedside
METAR-TAF:

METAR-TAF

Lufthavner :

Kärdla lufthavn

Kärdla, Estland

breddegrad: 58-59N, lengdegrad: 022-49E, høyde over havet: 5 m

Gjeldene værobservasjon

Denne rapporten ble laget for 1 time og 3 minutter siden, klokken 04:50 UTC
Vind 13 kt fra Sørøst
Temperatur 1°C
Luftfuktighet 93%
Trykk 994 hPa
Sikt: 6000 m
Overskyet i en høyde av 400 ft
lett snø

METAR: EEKA 290450Z 13013KT 6000 -SN OVC004 01/M00 Q0994

Tid: 07:53 (05:53 UTC)

Varsel

Denne rapporten ble laget for 1 time og 53 minutter siden, klokken 04:00 UTC
Varsel gyldig fra 29. klokken 05 UTC til 29. klokken 11 UTC
Vind 15 kt fra Sørøst
Sikt: 8000 m
Overskyet i en høyde av 700 ft
Midlertidig
fra 29. klokken 05 UTC til 29. klokken 08 UTC
Sikt: 2000 m
Overskyet i en høyde av 400 ft
snø, regn, dis

TAF: EEKA 290400Z 2905/2911 14015KT 8000 OVC007 TEMPO 2905/2908 2000 SNRA BR OVC004

Værobservasjoner og værvarsel for over 4000 flyplasser (METAR- og TAF-rapporter).

Tilgjengelige stasjoner er representert av de røde og gule prikkene på kartet.

Hold musepekeren over prikken for å se navnet på stasjonen.

Klikk så for å se værobservasjoner og -varsler.

For å forandre kartet kan du klikke på den grønne knappen med svart kryss for å zoome inn, på den grønne knappen med strek for å zoome ut, eller på de grønne pilene for å se tilstøtende kart.


METAR-TAF: